createdAt,value
2022-10-02T00:02:20.450Z,100127.78
2022-10-02T00:05:28.186Z,100119.59
2022-10-02T00:08:16.878Z,100127.00
2022-10-02T00:11:03.253Z,100121.44
2022-10-02T00:13:48.476Z,100123.81
2022-10-02T00:16:26.264Z,100141.59
2022-10-02T00:18:55.668Z,100124.47
2022-10-02T00:21:34.545Z,100145.41
2022-10-02T00:24:04.844Z,100145.84
2022-10-02T00:26:55.405Z,100155.53
2022-10-02T00:29:39.343Z,100151.84
2022-10-02T00:32:31.219Z,100158.41
2022-10-02T00:35:20.385Z,100155.44
2022-10-02T00:38:12.149Z,100160.09
2022-10-02T00:40:53.908Z,100162.84
2022-10-02T00:43:35.009Z,100171.13
2022-10-02T00:46:10.720Z,100175.53
2022-10-02T00:48:47.094Z,100182.22
2022-10-02T00:51:40.988Z,100188.69
2022-10-02T00:54:19.685Z,100192.47
2022-10-02T00:57:02.764Z,100195.13
2022-10-02T00:59:44.842Z,100197.47
2022-10-02T01:02:31.792Z,100198.41
2022-10-02T01:05:02.303Z,100194.50
2022-10-02T01:07:29.472Z,100201.06
2022-10-02T01:09:56.718Z,100199.81
2022-10-02T01:12:24.421Z,100194.81
2022-10-02T01:14:51.191Z,100199.69
2022-10-02T01:17:28.239Z,100187.94
2022-10-02T01:19:56.716Z,100189.72
2022-10-02T01:22:29.270Z,100193.75
2022-10-02T01:24:57.825Z,100187.72
2022-10-02T01:27:25.951Z,100192.72
2022-10-02T01:30:00.251Z,100198.19
2022-10-02T01:32:31.653Z,100198.53
2022-10-02T01:35:00.872Z,100200.22
2022-10-02T01:37:31.591Z,100201.47
2022-10-02T01:40:04.082Z,100217.88
2022-10-02T01:42:31.752Z,100225.28
2022-10-02T01:44:58.856Z,100226.13
2022-10-02T01:47:50.247Z,100230.75
2022-10-02T01:50:47.569Z,100242.63
2022-10-02T01:53:23.832Z,100244.63
2022-10-02T01:56:00.804Z,100245.25
2022-10-02T01:58:45.925Z,100241.16
2022-10-02T02:01:39.902Z,100244.09
2022-10-02T02:04:13.097Z,100246.72
2022-10-02T02:06:49.875Z,100251.00
2022-10-02T02:09:29.983Z,100253.63
2022-10-02T02:12:12.230Z,100259.75
2022-10-02T02:14:48.107Z,100266.41
2022-10-02T02:17:26.933Z,100269.47
2022-10-02T02:20:05.124Z,100271.69
2022-10-02T02:22:36.302Z,100271.69
2022-10-02T02:25:25.384Z,100270.00
2022-10-02T02:27:57.233Z,100267.22
2022-10-02T02:30:25.286Z,100265.53
2022-10-02T02:33:18.306Z,100269.13
2022-10-02T02:35:50.483Z,100267.28
2022-10-02T02:38:31.669Z,100275.72
2022-10-02T02:41:06.088Z,100288.38
2022-10-02T02:43:41.350Z,100294.16
2022-10-02T02:46:16.300Z,100298.59
2022-10-02T02:48:48.323Z,100302.25
2022-10-02T02:51:23.708Z,100294.66
2022-10-02T02:54:36.539Z,100305.31
2022-10-02T02:57:06.229Z,100305.22
2022-10-02T02:59:36.031Z,100295.22
2022-10-02T03:02:02.937Z,100300.78
2022-10-02T03:04:30.088Z,100310.91
2022-10-02T03:07:01.128Z,100319.88
2022-10-02T03:09:30.324Z,100316.56
2022-10-02T03:12:24.503Z,100325.69
2022-10-02T03:15:00.607Z,100328.31
2022-10-02T03:17:33.424Z,100335.22
2022-10-02T03:20:18.600Z,100333.97
2022-10-02T03:23:09.887Z,100333.38
2022-10-02T03:25:53.925Z,100329.31
2022-10-02T03:28:54.209Z,100333.91
2022-10-02T03:31:20.939Z,100337.66
2022-10-02T03:33:50.214Z,100333.75
2022-10-02T03:36:21.204Z,100339.91
2022-10-02T03:39:00.729Z,100337.03
2022-10-02T03:41:36.244Z,100340.34
2022-10-02T03:44:02.992Z,100335.38
2022-10-02T03:46:29.832Z,100354.22
2022-10-02T03:48:56.808Z,100345.78
2022-10-02T03:51:24.375Z,100352.56
2022-10-02T03:53:52.144Z,100355.41
2022-10-02T03:56:34.191Z,100343.78
2022-10-02T03:59:09.645Z,100352.03
2022-10-02T04:01:48.193Z,100347.81
2022-10-02T04:04:23.096Z,100358.41
2022-10-02T04:07:04.791Z,100347.81
2022-10-02T04:09:39.989Z,100362.34
2022-10-02T04:12:13.224Z,100359.75
2022-10-02T04:14:44.610Z,100352.81
2022-10-02T04:17:26.443Z,100365.50
2022-10-02T04:20:00.023Z,100368.97
2022-10-02T04:22:32.949Z,100367.81
2022-10-02T04:25:07.041Z,100362.59
2022-10-02T04:27:50.439Z,100369.06
2022-10-02T04:30:19.988Z,100377.09
2022-10-02T04:32:47.620Z,100379.75
2022-10-02T04:35:17.587Z,100396.81
2022-10-02T04:37:52.111Z,100385.91
2022-10-02T04:40:27.946Z,100399.66
2022-10-02T04:43:16.352Z,100407.84
2022-10-02T04:46:18.654Z,100411.50
2022-10-02T04:48:54.285Z,100409.44
2022-10-02T04:51:42.817Z,100417.13
2022-10-02T04:54:31.186Z,100416.47
2022-10-02T04:57:25.700Z,100410.03
2022-10-02T04:59:55.295Z,100415.50
2022-10-02T05:02:44.098Z,100421.28
2022-10-02T05:05:43.099Z,100427.31
2022-10-02T05:08:38.243Z,100427.53
2022-10-02T05:11:43.288Z,100433.78
2022-10-02T05:14:32.094Z,100434.50
2022-10-02T05:17:16.850Z,100441.59
2022-10-02T05:20:21.834Z,100448.19
2022-10-02T05:23:16.198Z,100446.28
2022-10-02T05:26:09.652Z,100443.13
2022-10-02T05:28:53.477Z,100453.94
2022-10-02T05:31:30.645Z,100448.63
2022-10-02T05:34:16.870Z,100447.28
2022-10-02T05:37:09.635Z,100443.19
2022-10-02T05:39:46.622Z,100436.31
2022-10-02T05:42:31.163Z,100450.19
2022-10-02T05:45:21.632Z,100452.63
2022-10-02T05:47:50.880Z,100450.22
2022-10-02T05:50:27.397Z,100450.22
2022-10-02T05:53:07.675Z,100449.81
2022-10-02T05:55:43.643Z,100464.22
2022-10-02T05:58:16.768Z,100467.44
2022-10-02T06:00:49.642Z,100476.03
2022-10-02T06:03:48.343Z,100469.47
2022-10-02T06:06:24.215Z,100478.06
2022-10-02T06:08:58.588Z,100478.28
2022-10-02T06:11:33.801Z,100484.69
2022-10-02T06:14:21.374Z,100485.94
2022-10-02T06:16:55.847Z,100483.63
2022-10-02T06:19:33.818Z,100492.44
2022-10-02T06:22:18.466Z,100491.28
2022-10-02T06:24:48.276Z,100486.91
2022-10-02T06:27:31.598Z,100486.41
2022-10-02T06:30:02.598Z,100493.44
2022-10-02T06:32:37.313Z,100488.56
2022-10-02T06:35:16.236Z,100481.44
2022-10-02T06:37:50.899Z,100492.78
2022-10-02T06:40:37.776Z,100493.09
2022-10-02T06:43:31.947Z,100492.44
2022-10-02T06:46:13.616Z,100500.19
2022-10-02T06:48:46.368Z,100508.69
2022-10-02T06:51:19.792Z,100516.63
2022-10-02T06:54:08.898Z,100516.09
2022-10-02T06:56:43.474Z,100521.69
2022-10-02T06:59:31.760Z,100530.91
2022-10-02T07:02:47.805Z,100529.72
2022-10-02T07:05:47.120Z,100544.44
2022-10-02T07:08:27.335Z,100544.63
2022-10-02T07:10:57.110Z,100544.97
2022-10-02T07:13:59.284Z,100552.56
2022-10-02T07:16:41.472Z,100564.88
2022-10-02T07:19:14.324Z,100553.63
2022-10-02T07:21:48.570Z,100551.00
2022-10-02T07:25:00.555Z,100555.72
2022-10-02T07:27:42.619Z,100561.31
2022-10-02T07:30:12.880Z,100561.44
2022-10-02T07:32:59.285Z,100566.19
2022-10-02T07:35:39.908Z,100580.34
2022-10-02T07:38:43.102Z,100581.50
2022-10-02T07:41:28.316Z,100580.00
2022-10-02T07:44:09.931Z,100579.44
2022-10-02T07:46:39.856Z,100582.38
2022-10-02T07:49:44.342Z,100581.91
2022-10-02T07:52:20.574Z,100582.22
2022-10-02T07:55:35.628Z,100580.38
2022-10-02T07:58:12.486Z,100567.25
2022-10-02T08:00:47.622Z,100572.88
2022-10-02T08:03:55.474Z,100565.06
2022-10-02T08:06:22.320Z,100578.69
2022-10-02T08:09:16.172Z,100587.03
2022-10-02T08:12:12.381Z,100585.53
2022-10-02T08:14:46.168Z,100597.03
2022-10-02T08:17:35.635Z,100597.00
2022-10-02T08:20:31.465Z,100586.38
2022-10-02T08:23:02.423Z,100592.88
2022-10-02T08:25:36.735Z,100582.22
2022-10-02T08:28:18.073Z,100579.66
2022-10-02T08:30:45.200Z,100578.66
2022-10-02T08:33:19.960Z,100586.38
2022-10-02T08:36:13.197Z,100589.19
2022-10-02T08:38:44.100Z,100593.69
2022-10-02T08:41:10.988Z,100601.59
2022-10-02T08:43:59.477Z,100604.19
2022-10-02T08:46:39.799Z,100597.41
2022-10-02T08:49:41.887Z,100604.53
2022-10-02T08:52:11.777Z,100602.91
2022-10-02T08:55:06.142Z,100609.91
2022-10-02T08:57:45.350Z,100614.81
2022-10-02T09:00:15.113Z,100602.41
2022-10-02T09:03:19.522Z,100607.59
2022-10-02T09:05:49.156Z,100608.34
2022-10-02T09:08:53.314Z,100618.59
2022-10-02T09:11:44.924Z,100606.16
2022-10-02T09:14:37.345Z,100606.88
2022-10-02T09:17:06.614Z,100594.78
2022-10-02T09:20:04.518Z,100603.06
2022-10-02T09:22:52.837Z,100604.84
2022-10-02T09:26:04.928Z,100607.47
2022-10-02T09:29:19.004Z,100613.06
2022-10-02T09:31:46.204Z,100612.44
2022-10-02T09:34:54.609Z,100603.19
2022-10-02T09:37:44.101Z,100587.94
2022-10-02T09:40:26.849Z,100587.91
2022-10-02T09:43:15.486Z,100585.03
2022-10-02T09:46:20.056Z,100583.06
2022-10-02T09:49:11.582Z,100585.09
2022-10-02T09:52:02.976Z,100598.41
2022-10-02T09:54:38.960Z,100589.06
2022-10-02T09:57:11.609Z,100585.09
2022-10-02T09:59:58.262Z,100599.06
2022-10-02T10:02:27.848Z,100598.06
2022-10-02T10:05:16.138Z,100602.41
2022-10-02T10:08:18.409Z,100600.59
2022-10-02T10:11:18.782Z,100598.75
2022-10-02T10:14:11.884Z,100583.69
2022-10-02T10:17:09.022Z,100584.97
2022-10-02T10:20:14.672Z,100587.09
2022-10-02T10:23:00.119Z,100574.25
2022-10-02T10:25:38.619Z,100587.41
2022-10-02T10:28:33.870Z,100589.44
2022-10-02T10:31:45.518Z,100584.94
2022-10-02T10:34:46.241Z,100593.38
2022-10-02T10:37:37.584Z,100578.56
2022-10-02T10:40:10.380Z,100567.53
2022-10-02T10:43:16.584Z,100576.78
2022-10-02T10:46:14.699Z,100574.94
2022-10-02T10:49:10.475Z,100579.16
2022-10-02T10:52:25.253Z,100581.09
2022-10-02T10:55:12.477Z,100574.44
2022-10-02T10:58:01.279Z,100581.41
2022-10-02T11:00:44.315Z,100575.66
2022-10-02T11:03:33.152Z,100572.81
2022-10-02T11:06:30.166Z,100572.75
2022-10-02T11:09:14.689Z,100572.44
2022-10-02T11:12:29.355Z,100569.03
2022-10-02T11:15:34.403Z,100580.81
2022-10-02T11:18:14.628Z,100587.41
2022-10-02T11:20:44.468Z,100587.16
2022-10-02T11:23:18.486Z,100589.53
2022-10-02T11:26:07.868Z,100588.47
2022-10-02T11:28:59.494Z,100581.84
2022-10-02T11:31:48.331Z,100565.81
2022-10-02T11:34:42.777Z,100566.38
2022-10-02T11:37:42.619Z,100556.22
2022-10-02T11:40:27.315Z,100561.63
2022-10-02T11:42:57.140Z,100547.56
2022-10-02T11:45:37.271Z,100550.50
2022-10-02T11:48:28.688Z,100552.00
2022-10-02T11:51:13.310Z,100540.06
2022-10-02T11:54:05.652Z,100529.78
2022-10-02T11:57:00.506Z,100530.84
2022-10-02T12:00:08.687Z,100521.38
2022-10-02T12:03:01.413Z,100521.19
2022-10-02T12:05:57.812Z,100531.19
2022-10-02T12:08:48.947Z,100534.38
2022-10-02T12:11:22.130Z,100539.31
2022-10-02T12:14:07.284Z,100529.03
2022-10-02T12:16:57.118Z,100532.78
2022-10-02T12:20:10.182Z,100530.91
2022-10-02T12:23:13.879Z,100525.59
2022-10-02T12:26:21.993Z,100514.47
2022-10-02T12:28:56.109Z,100528.38
2022-10-02T12:31:37.139Z,100518.28
2022-10-02T12:34:25.631Z,100513.78
2022-10-02T12:37:01.690Z,100512.78
2022-10-02T12:39:52.604Z,100505.03
2022-10-02T12:42:54.952Z,100513.69
2022-10-02T12:45:33.978Z,100497.59
2022-10-02T12:48:23.237Z,100494.19
2022-10-02T12:51:27.860Z,100491.19
2022-10-02T12:54:22.074Z,100498.75
2022-10-02T12:57:39.402Z,100499.31
2022-10-02T13:00:16.291Z,100503.69
2022-10-02T13:03:07.070Z,100505.41
2022-10-02T13:06:11.252Z,100508.84
2022-10-02T13:08:51.404Z,100496.84
2022-10-02T13:11:55.671Z,100489.69
2022-10-02T13:14:23.426Z,100478.97
2022-10-02T13:17:06.263Z,100492.81
2022-10-02T13:19:39.571Z,100471.84
2022-10-02T13:22:18.473Z,100475.47
2022-10-02T13:24:58.458Z,100478.09
2022-10-02T13:27:49.533Z,100469.38
2022-10-02T13:30:21.121Z,100473.50
2022-10-02T13:33:18.092Z,100466.72
2022-10-02T13:36:04.084Z,100466.72
2022-10-02T13:38:51.344Z,100463.78
2022-10-02T13:41:51.919Z,100470.94
2022-10-02T13:44:34.081Z,100466.66
2022-10-02T13:47:03.632Z,100464.25
2022-10-02T13:49:54.080Z,100460.66
2022-10-02T13:52:41.413Z,100463.47
2022-10-02T13:55:26.512Z,100451.50
2022-10-02T13:58:19.703Z,100450.16
2022-10-02T14:01:12.336Z,100448.19
2022-10-02T14:03:58.157Z,100449.28
2022-10-02T14:06:39.240Z,100434.91
2022-10-02T14:09:24.940Z,100436.19
2022-10-02T14:12:20.541Z,100438.94
2022-10-02T14:15:08.887Z,100449.34
2022-10-02T14:18:22.902Z,100448.19
2022-10-02T14:21:11.499Z,100438.63
2022-10-02T14:24:12.007Z,100435.00
2022-10-02T14:26:50.544Z,100443.97
2022-10-02T14:29:23.826Z,100437.66
2022-10-02T14:32:02.920Z,100444.16
2022-10-02T14:34:47.923Z,100438.00
2022-10-02T14:37:34.062Z,100430.84
2022-10-02T14:40:11.593Z,100428.78
2022-10-02T14:42:54.069Z,100414.31
2022-10-02T14:45:54.638Z,100429.63
2022-10-02T14:48:40.784Z,100422.19
2022-10-02T14:51:45.988Z,100416.38
2022-10-02T14:54:18.785Z,100412.34
2022-10-02T14:56:59.075Z,100405.75
2022-10-02T14:59:47.678Z,100402.34
2022-10-02T15:02:48.519Z,100389.38
2022-10-02T15:05:18.294Z,100389.31
2022-10-02T15:07:45.604Z,100380.13
2022-10-02T15:10:28.199Z,100380.84
2022-10-02T15:13:06.905Z,100386.78
2022-10-02T15:15:45.118Z,100381.13
2022-10-02T15:18:38.426Z,100389.00
2022-10-02T15:21:33.855Z,100388.41
2022-10-02T15:24:28.356Z,100403.41
2022-10-02T15:27:24.573Z,100381.69
2022-10-02T15:30:15.658Z,100381.09
2022-10-02T15:33:08.913Z,100378.56
2022-10-02T15:36:01.585Z,100388.22
2022-10-02T15:38:31.030Z,100380.97
2022-10-02T15:41:12.889Z,100381.69
2022-10-02T15:43:48.286Z,100377.59
2022-10-02T15:46:42.335Z,100375.56
2022-10-02T15:49:40.115Z,100367.81
2022-10-02T15:52:14.182Z,100358.75
2022-10-02T15:55:19.629Z,100363.38
2022-10-02T15:58:08.269Z,100360.72
2022-10-02T16:01:14.760Z,100356.97
2022-10-02T16:03:50.134Z,100352.00
2022-10-02T16:10:13.424Z,100356.84
2022-10-02T16:13:20.064Z,100368.78
2022-10-02T16:15:53.221Z,100365.53
2022-10-02T16:18:45.912Z,100360.09
2022-10-02T16:21:31.369Z,100358.28
2022-10-02T16:24:24.872Z,100364.19
2022-10-02T16:27:00.581Z,100351.41
2022-10-02T16:29:58.157Z,100351.03
2022-10-02T16:32:39.067Z,100357.78
2022-10-02T16:35:21.052Z,100371.31
2022-10-02T16:38:04.801Z,100368.53
2022-10-02T16:40:56.811Z,100372.53
2022-10-02T16:43:59.060Z,100366.84
2022-10-02T16:46:50.851Z,100358.72
2022-10-02T16:49:40.603Z,100363.56
2022-10-02T16:52:20.247Z,100352.59
2022-10-02T16:55:19.267Z,100357.53
2022-10-02T16:57:49.854Z,100347.75
2022-10-02T17:00:24.182Z,100346.56
2022-10-02T17:03:15.194Z,100345.22
2022-10-02T17:05:51.019Z,100341.84
2022-10-02T17:08:39.044Z,100336.28
2022-10-02T17:11:26.755Z,100339.19
2022-10-02T17:14:18.573Z,100339.06
2022-10-02T17:16:55.750Z,100351.59
2022-10-02T17:19:45.879Z,100352.56
2022-10-02T17:22:54.063Z,100348.34
2022-10-02T17:25:36.046Z,100346.66
2022-10-02T17:28:29.833Z,100339.41
2022-10-02T17:31:15.210Z,100342.31
2022-10-02T17:33:51.034Z,100343.22
2022-10-02T17:36:23.811Z,100333.31
2022-10-02T17:39:06.053Z,100344.19
2022-10-02T17:42:14.622Z,100347.69
2022-10-02T17:45:07.945Z,100343.69
2022-10-02T17:47:56.676Z,100350.19
2022-10-02T17:50:38.384Z,100348.88
2022-10-02T17:54:02.399Z,100355.25
2022-10-02T17:57:05.033Z,100354.31
2022-10-02T17:59:34.717Z,100355.13
2022-10-02T18:02:16.607Z,100366.25
2022-10-02T18:05:02.155Z,100362.75
2022-10-02T18:07:44.183Z,100372.88
2022-10-02T18:10:48.052Z,100358.06
2022-10-02T18:13:36.762Z,100359.69
2022-10-02T18:16:22.294Z,100345.44
2022-10-02T18:19:23.870Z,100367.28
2022-10-02T18:22:28.106Z,100371.75
2022-10-02T18:25:02.264Z,100368.38
2022-10-02T18:27:48.922Z,100359.22
2022-10-02T18:30:20.710Z,100371.53
2022-10-02T18:33:06.263Z,100360.66
2022-10-02T18:35:54.186Z,100365.00
2022-10-02T18:38:24.191Z,100361.38
2022-10-02T18:41:04.638Z,100362.72
2022-10-02T18:43:38.839Z,100362.94
2022-10-02T18:46:20.941Z,100368.88
2022-10-02T18:49:02.766Z,100354.84
2022-10-02T18:51:44.891Z,100369.22
2022-10-02T18:54:24.852Z,100368.13
2022-10-02T18:57:02.280Z,100373.13
2022-10-02T18:59:47.470Z,100358.00
2022-10-02T19:02:56.950Z,100359.28
2022-10-02T19:05:23.653Z,100351.66
2022-10-02T19:08:02.861Z,100344.41
2022-10-02T19:10:32.251Z,100333.91
2022-10-02T19:13:18.108Z,100336.81
2022-10-02T19:15:48.451Z,100351.78
2022-10-02T19:18:22.678Z,100351.50
2022-10-02T19:20:54.481Z,100350.19
2022-10-02T19:23:34.338Z,100349.31
2022-10-02T19:26:17.234Z,100351.13
2022-10-02T19:28:51.496Z,100349.50
2022-10-02T19:31:26.873Z,100340.78
2022-10-02T19:34:25.668Z,100333.78
2022-10-02T19:36:57.129Z,100327.63
2022-10-02T19:39:32.162Z,100326.53
2022-10-02T19:42:07.693Z,100316.16
2022-10-02T19:44:38.372Z,100317.59
2022-10-02T19:47:16.874Z,100307.47
2022-10-02T19:49:50.401Z,100307.72
2022-10-02T19:52:46.826Z,100300.59
2022-10-02T19:55:24.019Z,100314.06
2022-10-02T19:57:57.065Z,100314.56
2022-10-02T20:00:24.126Z,100308.41
2022-10-02T20:02:56.059Z,100296.34
2022-10-02T20:05:29.197Z,100305.38
2022-10-02T20:08:05.715Z,100299.88
2022-10-02T20:11:00.412Z,100305.47
2022-10-02T20:13:37.023Z,100307.78
2022-10-02T20:16:35.559Z,100293.91
2022-10-02T20:19:04.565Z,100296.56
2022-10-02T20:21:44.923Z,100295.22
2022-10-02T20:24:23.625Z,100300.75
2022-10-02T20:26:55.129Z,100289.28
2022-10-02T20:29:29.822Z,100293.41
2022-10-02T20:32:04.765Z,100293.50
2022-10-02T20:34:42.328Z,100291.44
2022-10-02T20:37:14.323Z,100285.88
2022-10-02T20:39:51.412Z,100296.34
2022-10-02T20:42:29.546Z,100285.75
2022-10-02T20:44:56.776Z,100290.19
2022-10-02T20:47:45.186Z,100292.75
2022-10-02T20:50:55.025Z,100275.38
2022-10-02T20:53:57.356Z,100273.31
2022-10-02T20:56:25.374Z,100276.34
2022-10-02T20:59:16.781Z,100280.81
2022-10-02T21:02:00.186Z,100283.91
2022-10-02T21:05:00.708Z,100281.84
2022-10-02T21:08:41.492Z,100298.13
2022-10-02T21:11:54.483Z,100305.56
2022-10-02T21:14:54.522Z,100303.66
2022-10-02T21:18:00.850Z,100297.41
2022-10-02T21:20:53.587Z,100298.28
2022-10-02T21:23:31.207Z,100296.91
2022-10-02T21:26:27.376Z,100293.16
2022-10-02T21:29:32.702Z,100294.41
2022-10-02T21:32:25.771Z,100299.16
2022-10-02T21:35:20.119Z,100303.72
2022-10-02T21:37:55.646Z,100295.13
2022-10-02T21:40:25.364Z,100286.47
2022-10-02T21:43:03.938Z,100282.59
2022-10-02T21:46:08.555Z,100286.34
2022-10-02T21:49:14.145Z,100286.00
2022-10-02T21:51:53.896Z,100280.91
2022-10-02T21:54:29.904Z,100289.31
2022-10-02T21:57:15.015Z,100283.75
2022-10-02T22:00:13.055Z,100281.59
2022-10-02T22:03:28.344Z,100278.56
2022-10-02T22:06:01.850Z,100282.16
2022-10-02T22:08:54.967Z,100279.84
2022-10-02T22:11:48.908Z,100288.25
2022-10-02T22:14:23.418Z,100290.81
2022-10-02T22:17:25.704Z,100291.72
2022-10-02T22:20:07.995Z,100290.56
2022-10-02T22:22:55.214Z,100289.09
2022-10-02T22:25:33.992Z,100285.09
2022-10-02T22:28:24.225Z,100282.44
2022-10-02T22:30:57.232Z,100283.28
2022-10-02T22:34:06.256Z,100289.56
2022-10-02T22:37:00.811Z,100281.91
2022-10-02T22:39:31.084Z,100285.09
2022-10-02T22:42:05.561Z,100261.28
2022-10-02T22:44:44.845Z,100275.97
2022-10-02T22:47:29.802Z,100269.00
2022-10-02T22:50:08.197Z,100261.28
2022-10-02T22:52:49.003Z,100258.84
2022-10-02T22:55:24.195Z,100256.31
2022-10-02T22:58:16.984Z,100251.97
2022-10-02T23:00:57.587Z,100244.69
2022-10-02T23:03:47.703Z,100248.59
2022-10-02T23:07:02.256Z,100263.13
2022-10-02T23:10:07.611Z,100240.13
2022-10-02T23:12:51.654Z,100243.63
2022-10-02T23:15:41.836Z,100232.91
2022-10-02T23:18:33.360Z,100243.94
2022-10-02T23:21:45.852Z,100243.84
2022-10-02T23:24:13.176Z,100247.00
2022-10-02T23:27:03.355Z,100242.69
2022-10-02T23:29:45.342Z,100236.47
2022-10-02T23:32:31.655Z,100234.97
2022-10-02T23:35:23.964Z,100255.31
2022-10-02T23:38:00.948Z,100256.56
2022-10-02T23:41:07.533Z,100259.63
2022-10-02T23:43:43.185Z,100263.03
2022-10-02T23:46:15.134Z,100256.69
2022-10-02T23:48:42.917Z,100256.38
2022-10-02T23:51:15.585Z,100269.09
2022-10-02T23:54:01.377Z,100271.19
2022-10-02T23:57:08.264Z,100270.56
2022-10-02T23:59:53.667Z,100271.50
